createdAt,value
2022-09-26T00:01:09.107Z,12.70
2022-09-26T00:03:37.280Z,12.70
2022-09-26T00:06:09.048Z,12.70
2022-09-26T00:08:38.023Z,12.70
2022-09-26T00:11:08.423Z,12.70
2022-09-26T00:13:38.288Z,12.60
2022-09-26T00:16:07.427Z,12.50
2022-09-26T00:18:35.308Z,12.40
2022-09-26T00:21:06.955Z,12.40
2022-09-26T00:23:34.725Z,12.40
2022-09-26T00:26:02.579Z,12.50
2022-09-26T00:28:30.539Z,12.50
2022-09-26T00:30:58.494Z,12.40
2022-09-26T00:33:26.485Z,12.20
2022-09-26T00:35:55.848Z,12.00
2022-09-26T00:38:24.910Z,11.90
2022-09-26T00:40:53.465Z,12.00
2022-09-26T00:43:29.736Z,12.00
2022-09-26T00:46:01.060Z,12.10
2022-09-26T00:48:30.255Z,12.00
2022-09-26T00:50:58.473Z,12.00
2022-09-26T00:53:37.095Z,12.10
2022-09-26T00:56:09.941Z,12.10
2022-09-26T00:58:43.903Z,12.20
2022-09-26T01:01:12.808Z,12.20
2022-09-26T01:03:43.847Z,12.20
2022-09-26T01:06:12.288Z,12.10
2022-09-26T01:08:44.730Z,12.10
2022-09-26T01:11:17.273Z,12.10
2022-09-26T01:13:46.074Z,12.10
2022-09-26T01:16:14.018Z,12.10
2022-09-26T01:18:42.487Z,12.10
2022-09-26T01:21:32.552Z,12.10
2022-09-26T01:24:29.713Z,12.10
2022-09-26T01:27:15.888Z,12.20
2022-09-26T01:30:08.074Z,12.20
2022-09-26T01:33:21.907Z,12.20
2022-09-26T01:36:04.865Z,12.20
2022-09-26T01:38:45.444Z,12.20
2022-09-26T01:41:34.061Z,12.20
2022-09-26T01:44:16.048Z,12.10
2022-09-26T01:46:51.916Z,12.20
2022-09-26T01:49:26.842Z,12.10
2022-09-26T01:52:01.403Z,12.10
2022-09-26T01:54:35.829Z,12.00
2022-09-26T01:57:06.885Z,12.10
2022-09-26T01:59:40.806Z,12.00
2022-09-26T02:02:15.862Z,12.00
2022-09-26T02:04:46.641Z,11.90
2022-09-26T02:10:36.490Z,11.80
2022-09-26T02:13:41.974Z,11.80
2022-09-26T02:16:24.995Z,11.80
2022-09-26T02:18:59.481Z,11.90
2022-09-26T02:21:32.162Z,11.80
2022-09-26T02:24:00.030Z,11.80
2022-09-26T02:26:27.927Z,11.80
2022-09-26T02:28:56.811Z,11.70
2022-09-26T02:31:27.106Z,11.80
2022-09-26T02:33:56.406Z,11.80
2022-09-26T02:36:26.939Z,11.80
2022-09-26T02:38:54.708Z,11.90
2022-09-26T02:41:49.393Z,11.90
2022-09-26T02:44:36.955Z,11.90
2022-09-26T02:47:36.384Z,11.90
2022-09-26T02:50:33.595Z,11.90
2022-09-26T02:53:17.248Z,11.80
2022-09-26T02:55:59.718Z,11.70
2022-09-26T02:58:36.228Z,11.70
2022-09-26T03:01:10.691Z,11.70
2022-09-26T03:03:44.114Z,11.70
2022-09-26T03:06:17.885Z,11.60
2022-09-26T03:08:48.757Z,11.60
2022-09-26T03:11:20.810Z,11.60
2022-09-26T03:13:51.529Z,11.60
2022-09-26T03:16:21.943Z,11.60
2022-09-26T03:18:54.152Z,11.60
2022-09-26T03:21:27.105Z,11.70
2022-09-26T03:23:57.212Z,11.60
2022-09-26T03:26:28.428Z,11.60
2022-09-26T03:29:00.333Z,11.60
2022-09-26T03:31:31.439Z,11.50
2022-09-26T03:34:01.999Z,11.60
2022-09-26T03:36:32.986Z,11.60
2022-09-26T03:39:03.136Z,11.60
2022-09-26T03:41:44.367Z,11.50
2022-09-26T03:44:28.866Z,11.50
2022-09-26T03:47:32.154Z,11.50
2022-09-26T03:50:00.081Z,11.60
2022-09-26T03:52:30.563Z,11.50
2022-09-26T03:54:58.456Z,11.50
2022-09-26T03:57:26.516Z,11.50
2022-09-26T04:00:01.924Z,11.50
2022-09-26T04:02:44.049Z,11.50
2022-09-26T04:05:24.220Z,11.40
2022-09-26T04:07:53.328Z,11.50
2022-09-26T04:10:21.139Z,11.50
2022-09-26T04:12:49.993Z,11.50
2022-09-26T04:15:18.200Z,11.50
2022-09-26T04:17:46.766Z,11.40
2022-09-26T04:20:15.165Z,11.50
2022-09-26T04:22:45.509Z,11.50
2022-09-26T04:25:14.829Z,11.40
2022-09-26T04:27:42.609Z,11.50
2022-09-26T04:30:12.244Z,11.50
2022-09-26T04:32:48.873Z,11.50
2022-09-26T04:35:36.620Z,11.50
2022-09-26T04:38:04.915Z,11.50
2022-09-26T04:40:39.483Z,11.40
2022-09-26T04:43:11.514Z,11.50
2022-09-26T04:45:41.765Z,11.50
2022-09-26T04:48:10.201Z,11.50
2022-09-26T04:50:50.232Z,11.50
2022-09-26T04:53:19.299Z,11.50
2022-09-26T04:56:04.735Z,11.50
2022-09-26T04:58:44.490Z,11.50
2022-09-26T05:01:23.084Z,11.50
2022-09-26T05:04:14.362Z,11.60
2022-09-26T05:06:43.347Z,11.50
2022-09-26T05:09:22.099Z,11.50
2022-09-26T05:12:12.742Z,11.60
2022-09-26T05:14:44.401Z,11.60
2022-09-26T05:17:12.291Z,11.60
2022-09-26T05:19:43.035Z,11.60
2022-09-26T05:22:31.900Z,11.60
2022-09-26T05:25:17.679Z,11.60
2022-09-26T05:27:47.339Z,11.60
2022-09-26T05:30:15.346Z,11.70
2022-09-26T05:32:46.020Z,11.60
2022-09-26T05:35:13.949Z,11.60
2022-09-26T05:37:42.992Z,11.50
2022-09-26T05:40:29.972Z,11.50
2022-09-26T05:43:03.057Z,11.50
2022-09-26T05:45:31.852Z,11.50
2022-09-26T05:48:03.043Z,11.50
2022-09-26T05:50:33.309Z,11.60
2022-09-26T05:53:01.959Z,11.60
2022-09-26T05:55:31.052Z,11.50
2022-09-26T05:58:34.322Z,11.50
2022-09-26T06:01:37.458Z,11.40
2022-09-26T06:04:17.426Z,11.40
2022-09-26T06:07:05.238Z,11.30
2022-09-26T06:09:33.010Z,11.20
2022-09-26T06:12:13.230Z,11.20
2022-09-26T06:14:46.822Z,11.20
2022-09-26T06:17:15.144Z,11.20
2022-09-26T06:19:44.407Z,11.20
2022-09-26T06:22:12.459Z,11.10
2022-09-26T06:24:40.390Z,11.10
2022-09-26T06:27:12.190Z,11.10
2022-09-26T06:29:40.128Z,11.10
2022-09-26T06:32:09.747Z,11.10
2022-09-26T06:35:12.821Z,11.10
2022-09-26T06:38:02.805Z,11.20
2022-09-26T06:40:33.653Z,11.20
2022-09-26T06:43:02.092Z,11.30
2022-09-26T06:45:50.366Z,11.30
2022-09-26T06:48:27.149Z,11.30
2022-09-26T06:51:00.736Z,11.40
2022-09-26T06:53:31.850Z,11.40
2022-09-26T06:56:00.714Z,11.40
2022-09-26T06:58:29.317Z,11.40
2022-09-26T07:01:02.038Z,11.40
2022-09-26T07:03:49.826Z,11.40
2022-09-26T07:06:36.536Z,11.40
2022-09-26T07:09:11.233Z,11.40
2022-09-26T07:12:14.651Z,11.40
2022-09-26T07:14:43.378Z,11.50
2022-09-26T07:17:28.834Z,11.50
2022-09-26T07:20:18.551Z,11.60
2022-09-26T07:23:04.624Z,11.60
2022-09-26T07:25:37.930Z,11.70
2022-09-26T07:28:06.081Z,11.80
2022-09-26T07:30:41.637Z,11.80
2022-09-26T07:33:15.564Z,11.80
2022-09-26T07:35:50.399Z,11.80
2022-09-26T07:38:18.504Z,11.80
2022-09-26T07:40:48.471Z,11.80
2022-09-26T07:43:20.129Z,11.80
2022-09-26T07:46:10.443Z,11.90
2022-09-26T07:48:57.511Z,12.00
2022-09-26T07:51:45.692Z,12.00
2022-09-26T07:54:18.478Z,11.90
2022-09-26T07:56:49.106Z,12.00
2022-09-26T07:59:39.878Z,12.10
2022-09-26T08:02:45.237Z,12.20
2022-09-26T08:05:19.436Z,12.20
2022-09-26T08:07:50.089Z,12.20
2022-09-26T08:10:46.664Z,12.20
2022-09-26T08:13:34.173Z,12.20
2022-09-26T08:16:21.379Z,12.20
2022-09-26T08:18:49.297Z,12.20
2022-09-26T08:21:18.001Z,12.20
2022-09-26T08:23:47.762Z,12.20
2022-09-26T08:26:45.507Z,12.30
2022-09-26T08:29:26.995Z,12.40
2022-09-26T08:31:56.145Z,12.50
2022-09-26T08:34:25.567Z,12.50
2022-09-26T08:37:12.348Z,12.50
2022-09-26T08:40:01.740Z,12.50
2022-09-26T08:43:19.659Z,12.60
2022-09-26T08:46:24.391Z,12.70
2022-09-26T08:49:26.001Z,12.80
2022-09-26T08:51:56.365Z,12.90
2022-09-26T08:54:33.824Z,12.90
2022-09-26T08:57:07.469Z,12.80
2022-09-26T08:59:40.418Z,12.90
2022-09-26T09:02:19.344Z,12.80
2022-09-26T09:05:01.335Z,12.90
2022-09-26T09:07:29.631Z,12.90
2022-09-26T09:10:02.445Z,13.00
2022-09-26T09:13:09.818Z,13.00
2022-09-26T09:16:08.896Z,13.10
2022-09-26T09:19:23.779Z,13.20
2022-09-26T09:22:33.860Z,13.30
2022-09-26T09:25:16.176Z,13.30
2022-09-26T09:28:02.490Z,13.50
2022-09-26T09:30:40.841Z,13.60
2022-09-26T09:33:20.433Z,13.70
2022-09-26T09:36:03.355Z,13.70
2022-09-26T09:38:39.266Z,13.70
2022-09-26T09:41:25.046Z,13.70
2022-09-26T09:43:56.625Z,13.80
2022-09-26T09:46:29.265Z,13.90
2022-09-26T09:49:01.168Z,14.10
2022-09-26T09:51:41.300Z,14.10
2022-09-26T09:54:28.398Z,14.20
2022-09-26T09:57:14.990Z,14.40
2022-09-26T09:59:57.199Z,14.30
2022-09-26T10:02:33.190Z,14.30
2022-09-26T10:05:15.949Z,14.30
2022-09-26T10:07:47.530Z,14.40
2022-09-26T10:10:43.888Z,14.30
2022-09-26T10:13:31.532Z,14.40
2022-09-26T10:16:34.855Z,14.50
2022-09-26T10:19:10.267Z,14.60
2022-09-26T10:21:40.749Z,14.70
2022-09-26T10:24:25.073Z,14.60
2022-09-26T10:27:00.191Z,14.50
2022-09-26T10:29:38.349Z,14.50
2022-09-26T10:32:07.293Z,14.50
2022-09-26T10:34:39.968Z,14.70
2022-09-26T10:37:23.101Z,14.80
2022-09-26T10:40:14.568Z,14.80
2022-09-26T10:42:44.997Z,15.00
2022-09-26T10:45:17.438Z,15.10
2022-09-26T10:48:08.250Z,15.30
2022-09-26T10:51:01.810Z,15.20
2022-09-26T10:53:46.040Z,15.30
2022-09-26T10:56:26.224Z,15.70
2022-09-26T10:58:59.213Z,15.90
2022-09-26T11:01:31.181Z,16.10
2022-09-26T11:04:11.436Z,16.30
2022-09-26T11:07:05.837Z,16.20
2022-09-26T11:09:47.830Z,16.20
2022-09-26T11:12:39.563Z,16.00
2022-09-26T11:15:13.197Z,15.90
2022-09-26T11:17:44.823Z,15.90
2022-09-26T11:20:27.433Z,16.00
2022-09-26T11:23:06.577Z,15.90
2022-09-26T11:25:50.101Z,16.00
2022-09-26T11:28:25.580Z,15.70
2022-09-26T11:31:24.457Z,15.50
2022-09-26T11:34:15.227Z,15.40
2022-09-26T11:37:08.508Z,15.10
2022-09-26T11:40:02.308Z,15.00
2022-09-26T11:42:44.641Z,14.90
2022-09-26T11:45:21.272Z,14.80
2022-09-26T11:48:28.704Z,14.80
2022-09-26T11:51:28.003Z,14.90
2022-09-26T11:54:13.276Z,15.00
2022-09-26T11:56:55.105Z,15.00
2022-09-26T11:59:52.701Z,15.00
2022-09-26T12:02:47.234Z,15.10
2022-09-26T12:05:32.901Z,15.30
2022-09-26T12:08:11.306Z,15.30
2022-09-26T12:10:48.928Z,15.30
2022-09-26T12:13:29.851Z,15.10
2022-09-26T12:16:04.171Z,15.00
2022-09-26T12:18:43.699Z,14.90
2022-09-26T12:21:22.901Z,14.90
2022-09-26T12:23:57.196Z,15.00
2022-09-26T12:26:35.052Z,15.00
2022-09-26T12:29:25.794Z,15.20
2022-09-26T12:32:25.800Z,15.10
2022-09-26T12:35:07.278Z,15.00
2022-09-26T12:38:00.268Z,15.10
2022-09-26T12:40:36.974Z,15.00
2022-09-26T12:43:38.485Z,14.90
2022-09-26T12:46:27.786Z,14.90
2022-09-26T12:49:14.049Z,14.90
2022-09-26T12:51:46.512Z,14.90
2022-09-26T12:54:34.861Z,14.90
2022-09-26T12:57:11.681Z,14.90
2022-09-26T13:00:09.926Z,14.90
2022-09-26T13:02:54.693Z,15.10
2022-09-26T13:05:41.271Z,15.20
2022-09-26T13:08:16.450Z,15.30
2022-09-26T13:10:58.722Z,15.30
2022-09-26T13:13:46.895Z,15.20
2022-09-26T13:16:25.392Z,15.20
2022-09-26T13:19:01.284Z,15.20
2022-09-26T13:21:44.100Z,15.30
2022-09-26T13:24:18.544Z,15.30
2022-09-26T13:26:52.180Z,15.30
2022-09-26T13:29:26.200Z,15.40
2022-09-26T13:32:01.889Z,15.30
2022-09-26T13:34:37.532Z,15.20
2022-09-26T13:37:09.875Z,15.20
2022-09-26T13:39:47.988Z,15.10
2022-09-26T13:42:21.258Z,15.10
2022-09-26T13:44:58.958Z,15.10
2022-09-26T13:47:35.995Z,15.10
2022-09-26T13:50:19.806Z,15.10
2022-09-26T13:52:56.586Z,14.90
2022-09-26T13:55:25.477Z,15.00
2022-09-26T13:58:06.849Z,15.00
2022-09-26T14:00:56.964Z,15.00
2022-09-26T14:03:39.960Z,14.90
2022-09-26T14:06:30.796Z,14.90
2022-09-26T14:09:25.744Z,14.90
2022-09-26T14:12:33.508Z,14.80
2022-09-26T14:15:20.833Z,14.70
2022-09-26T14:18:09.844Z,14.70
2022-09-26T14:20:57.021Z,14.80
2022-09-26T14:23:43.851Z,15.00
2022-09-26T14:26:19.219Z,15.10
2022-09-26T14:28:54.971Z,15.10
2022-09-26T14:31:38.608Z,15.10
2022-09-26T14:34:16.491Z,15.10
2022-09-26T14:36:45.380Z,15.00
2022-09-26T14:39:28.375Z,15.10
2022-09-26T14:41:58.829Z,15.00
2022-09-26T14:44:33.680Z,15.10
2022-09-26T14:47:09.135Z,15.00
2022-09-26T14:49:37.338Z,15.00
2022-09-26T14:52:11.137Z,15.10
2022-09-26T14:54:41.960Z,15.20
2022-09-26T14:57:21.645Z,15.20
2022-09-26T14:59:49.783Z,15.10
2022-09-26T15:02:39.934Z,15.10
2022-09-26T15:05:19.899Z,15.10
2022-09-26T15:07:50.091Z,15.10
2022-09-26T15:10:36.279Z,15.00
2022-09-26T15:13:11.380Z,14.80
2022-09-26T15:15:48.188Z,14.70
2022-09-26T15:18:31.784Z,14.50
2022-09-26T15:21:04.719Z,14.50
2022-09-26T15:23:35.108Z,14.50
2022-09-26T15:26:06.029Z,14.50
2022-09-26T15:28:34.995Z,14.50
2022-09-26T15:31:38.779Z,14.50
2022-09-26T15:34:17.420Z,14.50
2022-09-26T15:36:48.257Z,14.50
2022-09-26T15:39:38.978Z,14.50
2022-09-26T15:42:52.705Z,14.40
2022-09-26T15:45:28.800Z,14.40
2022-09-26T15:47:58.705Z,14.40
2022-09-26T15:50:30.025Z,14.30
2022-09-26T15:53:02.949Z,14.10
2022-09-26T15:55:36.921Z,14.10
2022-09-26T15:58:07.703Z,14.10
2022-09-26T16:00:37.866Z,14.10
2022-09-26T16:03:31.828Z,14.00
2022-09-26T16:06:00.154Z,13.90
2022-09-26T16:08:32.495Z,13.80
2022-09-26T16:11:01.940Z,13.80
2022-09-26T16:13:36.823Z,13.70
2022-09-26T16:16:07.795Z,13.70
2022-09-26T16:18:39.886Z,13.70
2022-09-26T16:21:19.795Z,13.70
2022-09-26T16:23:49.803Z,13.70
2022-09-26T16:26:30.069Z,13.70
2022-09-26T16:29:00.662Z,13.70
2022-09-26T16:31:34.414Z,13.70
2022-09-26T16:34:02.840Z,13.70
2022-09-26T16:36:33.304Z,13.70
2022-09-26T16:39:03.143Z,13.60
2022-09-26T16:42:00.031Z,13.60
2022-09-26T16:44:34.320Z,13.60
2022-09-26T16:47:05.320Z,13.50
2022-09-26T16:49:42.135Z,13.50
2022-09-26T16:52:18.106Z,13.50
2022-09-26T16:54:45.891Z,13.50
2022-09-26T16:57:19.360Z,13.40
2022-09-26T16:59:48.650Z,13.40
2022-09-26T17:02:15.541Z,13.40
2022-09-26T17:04:44.425Z,13.40
2022-09-26T17:07:14.282Z,13.30
2022-09-26T17:09:43.984Z,13.20
2022-09-26T17:12:18.850Z,13.10
2022-09-26T17:14:51.906Z,12.80
2022-09-26T17:17:22.026Z,12.60
2022-09-26T17:19:56.826Z,12.40
2022-09-26T17:22:27.939Z,12.30
2022-09-26T17:24:56.016Z,12.30
2022-09-26T17:27:26.939Z,12.20
2022-09-26T17:30:00.224Z,12.10
2022-09-26T17:32:30.459Z,12.10
2022-09-26T17:35:00.310Z,12.00
2022-09-26T17:37:28.921Z,12.10
2022-09-26T17:39:57.103Z,12.10
2022-09-26T17:42:25.455Z,12.00
2022-09-26T17:44:54.117Z,12.00
2022-09-26T17:47:23.717Z,12.00
2022-09-26T17:49:56.210Z,12.00
2022-09-26T17:52:28.810Z,11.90
2022-09-26T17:54:59.852Z,11.90
2022-09-26T17:57:30.145Z,11.90
2022-09-26T17:59:58.597Z,11.90
2022-09-26T18:02:34.461Z,11.90
2022-09-26T18:05:07.270Z,11.90
2022-09-26T18:07:38.939Z,12.00
2022-09-26T18:10:17.042Z,11.90
2022-09-26T18:12:45.518Z,11.90
2022-09-26T18:15:16.883Z,11.90
2022-09-26T18:17:46.009Z,11.90
2022-09-26T18:20:13.875Z,11.90
2022-09-26T18:22:41.773Z,11.90
2022-09-26T18:25:18.909Z,11.90
2022-09-26T18:27:47.590Z,11.90
2022-09-26T18:30:15.900Z,11.90
2022-09-26T18:32:47.448Z,11.80
2022-09-26T18:35:17.010Z,11.80
2022-09-26T18:37:44.973Z,11.80
2022-09-26T18:40:15.401Z,11.80
2022-09-26T18:42:44.452Z,11.70
2022-09-26T18:45:15.170Z,11.80
2022-09-26T18:47:45.295Z,11.70
2022-09-26T18:50:23.577Z,11.70
2022-09-26T18:52:52.123Z,11.70
2022-09-26T18:55:39.631Z,11.80
2022-09-26T18:58:26.585Z,11.80
2022-09-26T19:00:57.655Z,11.70
2022-09-26T19:03:27.810Z,11.80
2022-09-26T19:06:03.243Z,11.80
2022-09-26T19:08:35.182Z,11.80
2022-09-26T19:11:11.725Z,11.80
2022-09-26T19:13:39.740Z,11.80
2022-09-26T19:16:07.788Z,11.80
2022-09-26T19:18:35.797Z,11.90
2022-09-26T19:21:08.416Z,11.90
2022-09-26T19:23:37.606Z,11.90
2022-09-26T19:26:07.542Z,11.90
2022-09-26T19:28:37.273Z,11.90
2022-09-26T19:31:05.564Z,11.90
2022-09-26T19:33:33.773Z,11.90
2022-09-26T19:36:01.863Z,11.90
2022-09-26T19:38:30.974Z,11.90
2022-09-26T19:40:58.892Z,11.90
2022-09-26T19:43:26.917Z,11.80
2022-09-26T19:46:00.675Z,11.80
2022-09-26T19:49:15.229Z,11.80
2022-09-26T19:52:15.848Z,11.80
2022-09-26T19:54:46.554Z,11.70
2022-09-26T19:57:16.655Z,11.70
2022-09-26T19:59:44.522Z,11.70
2022-09-26T20:02:16.414Z,11.80
2022-09-26T20:04:44.696Z,11.80
2022-09-26T20:07:13.888Z,11.80
2022-09-26T20:09:43.574Z,11.80
2022-09-26T20:13:04.765Z,11.80
2022-09-26T20:15:34.469Z,11.80
2022-09-26T20:18:02.439Z,11.70
2022-09-26T20:20:32.040Z,11.70
2022-09-26T20:23:00.437Z,11.70
2022-09-26T20:25:30.905Z,11.70
2022-09-26T20:28:01.203Z,11.80
2022-09-26T20:30:47.025Z,11.80
2022-09-26T20:33:15.166Z,11.80
2022-09-26T20:35:47.440Z,11.80
2022-09-26T20:38:22.028Z,11.80
2022-09-26T20:40:50.551Z,11.80
2022-09-26T20:43:25.502Z,11.90
2022-09-26T20:45:53.387Z,11.90
2022-09-26T20:48:25.332Z,11.80
2022-09-26T20:50:53.296Z,11.80
2022-09-26T20:53:24.366Z,11.80
2022-09-26T20:55:53.124Z,11.80
2022-09-26T20:58:22.816Z,11.80
2022-09-26T21:00:53.168Z,11.90
2022-09-26T21:03:25.100Z,11.90
2022-09-26T21:05:52.999Z,11.80
2022-09-26T21:08:26.783Z,11.80
2022-09-26T21:10:55.894Z,11.80
2022-09-26T21:13:25.068Z,11.80
2022-09-26T21:15:53.740Z,11.70
2022-09-26T21:18:25.239Z,11.70
2022-09-26T21:20:53.693Z,11.70
2022-09-26T21:23:43.401Z,11.70
2022-09-26T21:26:19.188Z,11.70
2022-09-26T21:28:49.664Z,11.70
2022-09-26T21:31:22.934Z,11.70
2022-09-26T21:33:51.134Z,11.70
2022-09-26T21:36:21.485Z,11.70
2022-09-26T21:38:51.296Z,11.80
2022-09-26T21:41:19.641Z,11.80
2022-09-26T21:43:53.701Z,11.70
2022-09-26T21:46:21.508Z,11.70
2022-09-26T21:48:50.076Z,11.70
2022-09-26T21:51:17.924Z,11.70
2022-09-26T21:53:49.121Z,11.70
2022-09-26T21:56:22.410Z,11.70
2022-09-26T21:58:51.854Z,11.70
2022-09-26T22:01:20.024Z,11.60
2022-09-26T22:03:47.871Z,11.60
2022-09-26T22:06:15.744Z,11.60
2022-09-26T22:08:43.575Z,11.60
2022-09-26T22:11:11.342Z,11.60
2022-09-26T22:13:39.392Z,11.60
2022-09-26T22:16:10.647Z,11.60
2022-09-26T22:18:40.055Z,11.60
2022-09-26T22:21:09.124Z,11.60
2022-09-26T22:23:38.089Z,11.60
2022-09-26T22:26:06.718Z,11.60
2022-09-26T22:28:34.664Z,11.60
2022-09-26T22:31:02.918Z,11.60
2022-09-26T22:33:32.111Z,11.60
2022-09-26T22:35:59.954Z,11.60
2022-09-26T22:38:27.890Z,11.60
2022-09-26T22:40:59.026Z,11.60
2022-09-26T22:43:27.283Z,11.60
2022-09-26T22:46:00.975Z,11.60
2022-09-26T22:48:32.777Z,11.60
2022-09-26T22:51:00.748Z,11.60
2022-09-26T22:53:28.943Z,11.60
2022-09-26T22:55:57.523Z,11.60
2022-09-26T22:58:27.047Z,11.60
2022-09-26T23:00:54.784Z,11.60
2022-09-26T23:03:22.630Z,11.60
2022-09-26T23:05:51.732Z,11.60
2022-09-26T23:08:19.553Z,11.60
2022-09-26T23:10:50.688Z,11.60
2022-09-26T23:13:18.877Z,11.60
2022-09-26T23:15:46.902Z,11.60
2022-09-26T23:18:15.279Z,11.50
2022-09-26T23:20:44.540Z,11.50
2022-09-26T23:23:14.935Z,11.50
2022-09-26T23:25:46.584Z,11.40
2022-09-26T23:28:14.671Z,11.50
2022-09-26T23:30:42.739Z,11.50
2022-09-26T23:33:11.067Z,11.40
2022-09-26T23:35:38.859Z,11.40
2022-09-26T23:38:06.594Z,11.40
2022-09-26T23:40:37.656Z,11.40
2022-09-26T23:43:05.473Z,11.40
2022-09-26T23:45:33.256Z,11.40
2022-09-26T23:48:01.240Z,11.50
2022-09-26T23:50:28.992Z,11.50
2022-09-26T23:52:57.903Z,11.50
2022-09-26T23:55:25.718Z,11.60
2022-09-26T23:57:57.299Z,11.50
